createdAt,value
2018-07-22T00:00:57.467Z,99430.59
2018-07-22T00:03:26.483Z,99429.70
2018-07-22T00:05:55.580Z,99429.33
2018-07-22T00:08:24.672Z,99430.33
2018-07-22T00:10:53.701Z,99424.24
2018-07-22T00:13:22.696Z,99426.10
2018-07-22T00:15:51.669Z,99426.35
2018-07-22T00:18:20.636Z,99422.17
2018-07-22T00:20:49.588Z,99417.00
2018-07-22T00:23:18.620Z,99419.73
2018-07-22T00:25:47.617Z,99419.23
2018-07-22T00:28:16.660Z,99418.37
2018-07-22T00:30:45.666Z,99418.08
2018-07-22T00:33:14.624Z,99419.44
2018-07-22T00:35:43.589Z,99415.05
2018-07-22T00:38:12.560Z,99413.16
2018-07-22T00:40:41.604Z,99416.66
2018-07-22T00:43:10.612Z,99414.59
2018-07-22T00:45:39.595Z,99413.38
2018-07-22T00:48:08.556Z,99410.36
2018-07-22T00:50:37.661Z,99411.09
2018-07-22T00:53:06.688Z,99419.75
2018-07-22T00:55:35.701Z,99419.46
2018-07-22T00:58:04.680Z,99417.52
2018-07-22T01:00:33.647Z,99413.66
2018-07-22T01:03:02.680Z,99413.66
2018-07-22T01:05:31.700Z,99415.52
2018-07-22T01:08:00.732Z,99384.59
2018-07-22T01:10:29.755Z,99418.09
2018-07-22T01:12:58.704Z,99414.52
2018-07-22T01:15:27.740Z,99421.55
2018-07-22T01:17:56.816Z,99418.23
2018-07-22T01:20:25.838Z,99417.41
2018-07-22T01:22:54.796Z,99422.63
2018-07-22T01:25:23.817Z,99429.73
2018-07-22T01:27:52.878Z,99427.05
2018-07-22T01:30:21.953Z,99428.17
2018-07-22T01:32:50.907Z,99431.45
2018-07-22T01:35:19.896Z,99430.37
2018-07-22T01:37:48.875Z,99425.75
2018-07-22T01:40:17.957Z,99427.88
2018-07-22T01:42:47.073Z,99427.25
2018-07-22T01:45:16.150Z,99420.19
2018-07-22T01:47:45.134Z,99419.65
2018-07-22T01:50:14.156Z,99415.22
2018-07-22T01:52:43.173Z,99412.97
2018-07-22T01:55:12.128Z,99416.42
2018-07-22T01:57:41.073Z,99413.64
2018-07-22T02:00:10.109Z,99415.78
2018-07-22T02:02:39.223Z,99414.94
2018-07-22T02:05:08.355Z,99415.13
2018-07-22T02:07:37.317Z,99423.80
2018-07-22T02:10:06.292Z,99419.71
2018-07-22T02:12:35.232Z,99421.59
2018-07-22T02:15:04.685Z,99421.25
2018-07-22T02:17:33.755Z,99426.88
2018-07-22T02:20:02.824Z,99428.73
2018-07-22T02:22:31.937Z,99426.58
2018-07-22T02:25:00.947Z,99431.91
2018-07-22T02:27:29.913Z,99436.16
2018-07-22T02:29:58.864Z,99432.49
2018-07-22T02:32:27.882Z,99434.31
2018-07-22T02:34:56.966Z,99443.77
2018-07-22T02:37:26.057Z,99440.88
2018-07-22T02:39:55.092Z,99442.94
2018-07-22T02:42:24.118Z,99437.13
2018-07-22T02:44:53.075Z,99443.38
2018-07-22T02:47:22.205Z,99436.75
2018-07-22T02:49:51.320Z,99438.59
2018-07-22T02:52:20.275Z,99439.92
2018-07-22T02:54:49.244Z,99439.86
2018-07-22T02:57:18.193Z,99440.16
2018-07-22T02:59:47.218Z,99451.59
2018-07-22T03:02:16.188Z,99446.20
2018-07-22T03:04:45.151Z,99448.66
2018-07-22T03:07:14.238Z,99444.09
2018-07-22T03:09:43.298Z,99440.84
2018-07-22T03:12:12.316Z,99446.28
2018-07-22T03:14:41.327Z,99447.47
2018-07-22T03:17:11.737Z,99458.45
2018-07-22T03:19:40.802Z,99461.00
2018-07-22T03:22:09.820Z,99458.36
2018-07-22T03:24:38.776Z,99462.05
2018-07-22T03:27:07.782Z,99465.48
2018-07-22T03:29:36.844Z,99463.42
2018-07-22T03:32:05.872Z,99469.06
2018-07-22T03:34:34.837Z,99467.11
2018-07-22T03:37:03.803Z,99462.95
2018-07-22T03:39:32.824Z,99464.83
2018-07-22T03:42:01.846Z,99459.31
2018-07-22T03:44:30.961Z,99464.75
2018-07-22T03:46:59.925Z,99458.75
2018-07-22T03:49:28.924Z,99463.70
2018-07-22T03:51:57.873Z,99463.90
2018-07-22T03:54:26.948Z,99462.50
2018-07-22T03:56:56.049Z,99458.28
2018-07-22T03:59:25.090Z,99458.12
2018-07-22T04:01:54.136Z,99462.91
2018-07-22T04:04:23.108Z,99460.31
2018-07-22T04:06:52.224Z,99458.04
2018-07-22T04:09:21.192Z,99461.83
2018-07-22T04:11:50.229Z,99454.33
2018-07-22T04:14:19.247Z,99453.98
2018-07-22T04:16:48.337Z,99444.25
2018-07-22T04:19:17.305Z,99446.34
2018-07-22T04:21:46.276Z,99443.27
2018-07-22T04:24:15.305Z,99443.59
2018-07-22T04:26:44.288Z,99441.88
2018-07-22T04:29:14.255Z,99436.19
2018-07-22T04:31:43.292Z,99436.86
2018-07-22T04:34:12.268Z,99429.80
2018-07-22T04:36:41.345Z,99432.12
2018-07-22T04:39:11.172Z,99438.73
2018-07-22T04:41:40.124Z,99429.86
2018-07-22T04:44:09.180Z,99436.68
2018-07-22T04:46:38.152Z,99427.73
2018-07-22T04:49:07.182Z,99428.34
2018-07-22T04:51:36.159Z,99421.77
2018-07-22T04:54:05.229Z,99422.21
2018-07-22T04:56:34.341Z,99428.98
2018-07-22T04:59:03.365Z,99428.16
2018-07-22T05:01:32.385Z,99432.05
2018-07-22T05:04:01.332Z,99425.59
2018-07-22T05:06:30.365Z,99424.96
2018-07-22T05:08:59.419Z,99429.50
2018-07-22T05:11:28.429Z,99431.46
2018-07-22T05:13:57.460Z,99427.35
2018-07-22T05:16:26.492Z,99422.70
2018-07-22T05:18:55.504Z,99433.20
2018-07-22T05:21:24.562Z,99427.64
2018-07-22T05:23:53.592Z,99423.59
2018-07-22T05:26:22.611Z,99430.22
2018-07-22T05:28:51.618Z,99440.80
2018-07-22T05:31:20.743Z,99435.86
2018-07-22T05:33:49.923Z,99432.70
2018-07-22T05:36:18.890Z,99432.31
2018-07-22T05:38:47.853Z,99432.15
2018-07-22T05:41:16.874Z,99425.44
2018-07-22T05:43:46.009Z,99421.02
2018-07-22T05:46:15.110Z,99427.84
2018-07-22T05:48:44.143Z,99425.17
2018-07-22T05:51:13.110Z,99424.78
2018-07-22T05:53:42.052Z,99424.48
2018-07-22T05:56:11.070Z,99430.39
2018-07-22T05:58:40.183Z,99425.66
2018-07-22T06:01:09.159Z,99425.05
2018-07-22T06:03:38.247Z,99426.29
2018-07-22T06:06:07.230Z,99423.07
2018-07-22T06:08:36.188Z,99411.91
2018-07-22T06:11:05.203Z,99415.14
2018-07-22T06:13:34.304Z,99411.35
2018-07-22T06:16:03.405Z,99411.72
2018-07-22T06:18:32.444Z,99407.23
2018-07-22T06:21:01.400Z,99401.64
2018-07-22T06:23:30.459Z,99400.33
2018-07-22T06:25:59.533Z,99399.75
2018-07-22T06:28:28.552Z,99397.14
2018-07-22T06:30:57.509Z,99393.89
2018-07-22T06:33:26.468Z,99393.55
2018-07-22T06:35:55.461Z,99391.16
2018-07-22T06:38:24.502Z,99394.21
2018-07-22T06:40:53.528Z,99391.67
2018-07-22T06:43:22.608Z,99398.60
2018-07-22T06:45:51.591Z,99401.50
2018-07-22T06:48:20.618Z,99402.98
2018-07-22T06:50:49.635Z,99396.89
2018-07-22T06:53:18.645Z,99402.84
2018-07-22T06:55:47.718Z,99401.09
2018-07-22T06:58:16.673Z,99394.74
2018-07-22T07:00:45.686Z,99392.95
2018-07-22T07:03:14.785Z,99394.98
2018-07-22T07:05:43.785Z,99395.56
2018-07-22T07:08:12.751Z,99395.32
2018-07-22T07:10:41.840Z,99399.89
2018-07-22T07:13:10.845Z,99390.70
2018-07-22T07:15:39.844Z,99390.55
2018-07-22T07:18:08.828Z,99390.34
2018-07-22T07:20:37.787Z,99384.20
2018-07-22T07:23:06.799Z,99383.96
2018-07-22T07:25:35.958Z,99384.23
2018-07-22T07:28:04.945Z,99382.12
2018-07-22T07:30:33.917Z,99384.40
2018-07-22T07:33:03.003Z,99393.15
2018-07-22T07:35:31.997Z,99385.98
2018-07-22T07:38:01.041Z,99384.08
2018-07-22T07:40:30.016Z,99390.22
2018-07-22T07:42:59.052Z,99385.89
2018-07-22T07:45:28.156Z,99385.22
2018-07-22T07:47:57.143Z,99382.34
2018-07-22T07:50:26.155Z,99379.89
2018-07-22T07:52:55.289Z,99386.63
2018-07-22T07:55:24.713Z,99382.31
2018-07-22T07:57:53.989Z,99382.18
2018-07-22T08:00:23.049Z,99382.59
2018-07-22T08:02:54.890Z,99380.25
2018-07-22T08:05:23.905Z,99378.95
2018-07-22T08:07:52.961Z,99379.01
2018-07-22T08:10:22.025Z,99372.00
2018-07-22T08:12:51.013Z,99374.59
2018-07-22T08:15:20.052Z,99371.48
2018-07-22T08:17:49.173Z,99374.72
2018-07-22T08:20:18.250Z,99371.19
2018-07-22T08:22:47.309Z,99370.83
2018-07-22T08:25:16.517Z,99369.63
2018-07-22T08:27:45.549Z,99371.66
2018-07-22T08:30:14.593Z,99367.92
2018-07-22T08:32:44.160Z,99368.00
2018-07-22T08:35:13.208Z,99370.31
2018-07-22T08:37:42.193Z,99361.23
2018-07-22T08:40:11.189Z,99365.67
2018-07-22T08:42:40.269Z,99368.77
2018-07-22T08:45:09.443Z,99315.58
2018-07-22T08:47:38.511Z,99358.91
2018-07-22T08:50:07.646Z,99356.47
2018-07-22T08:52:36.749Z,99345.19
2018-07-22T08:55:06.145Z,99342.04
2018-07-22T08:57:35.165Z,99341.58
2018-07-22T09:00:04.376Z,99334.47
2018-07-22T09:02:33.509Z,99335.39
2018-07-22T09:05:02.538Z,99332.16
2018-07-22T09:07:32.429Z,99328.89
2018-07-22T09:10:01.725Z,99330.86
2018-07-22T09:12:30.748Z,99331.19
2018-07-22T09:14:59.873Z,99329.46
2018-07-22T09:17:28.836Z,99325.51
2018-07-22T09:19:57.816Z,99330.30
2018-07-22T09:22:26.841Z,99323.06
2018-07-22T09:24:55.904Z,99314.82
2018-07-22T09:27:24.907Z,99319.58
2018-07-22T09:29:53.920Z,99316.17
2018-07-22T09:32:22.952Z,99310.20
2018-07-22T09:34:51.919Z,99304.78
2018-07-22T09:37:20.926Z,99295.56
2018-07-22T09:39:49.985Z,99299.75
2018-07-22T09:42:18.965Z,99290.34
2018-07-22T09:44:48.045Z,99284.97
2018-07-22T09:47:17.964Z,99280.69
2018-07-22T09:49:47.082Z,99285.61
2018-07-22T09:52:16.048Z,99283.75
2018-07-22T09:54:45.065Z,99272.98
2018-07-22T09:57:14.082Z,99277.86
2018-07-22T09:59:43.052Z,99269.88
2018-07-22T10:02:12.118Z,99272.17
2018-07-22T10:04:41.158Z,99265.09
2018-07-22T10:07:10.245Z,99267.91
2018-07-22T10:09:39.333Z,99262.83
2018-07-22T10:12:08.419Z,99263.18
2018-07-22T10:14:37.599Z,99257.14
2018-07-22T10:17:06.618Z,99252.55
2018-07-22T10:19:35.576Z,99247.04
2018-07-22T10:22:04.616Z,99248.22
2018-07-22T10:24:33.632Z,99242.52
2018-07-22T10:27:02.652Z,99247.36
2018-07-22T10:29:31.676Z,99245.05
2018-07-22T10:32:00.681Z,99245.84
2018-07-22T10:34:29.777Z,99238.56
2018-07-22T10:36:58.837Z,99238.51
2018-07-22T10:39:27.812Z,99229.78
2018-07-22T10:41:56.781Z,99231.53
2018-07-22T10:44:25.922Z,99234.02
2018-07-22T10:46:54.973Z,99233.13
2018-07-22T10:49:23.966Z,99220.19
2018-07-22T10:51:52.992Z,99219.23
2018-07-22T10:54:21.932Z,99214.21
2018-07-22T10:56:50.896Z,99217.22
2018-07-22T10:59:19.921Z,99214.71
2018-07-22T11:01:48.973Z,99214.27
2018-07-22T11:04:18.003Z,99205.51
2018-07-22T11:06:47.044Z,99202.01
2018-07-22T11:09:16.025Z,99199.83
2018-07-22T11:11:46.461Z,99192.83
2018-07-22T11:14:15.527Z,99186.37
2018-07-22T11:16:44.605Z,99187.19
2018-07-22T11:19:13.737Z,99188.58
2018-07-22T11:21:42.718Z,99173.84
2018-07-22T11:24:11.678Z,99167.39
2018-07-22T11:26:40.754Z,99170.63
2018-07-22T11:29:09.855Z,99167.39
2018-07-22T11:31:38.943Z,99166.75
2018-07-22T11:34:07.998Z,99162.87
2018-07-22T11:36:37.047Z,99162.06
2018-07-22T11:39:08.240Z,99161.63
2018-07-22T11:41:38.048Z,99161.48
2018-07-22T11:44:07.627Z,99160.51
2018-07-22T11:46:37.292Z,99154.64
2018-07-22T11:49:06.883Z,99150.62
2018-07-22T11:51:36.199Z,99148.73
2018-07-22T11:54:05.245Z,99143.14
2018-07-22T11:56:34.278Z,99151.69
2018-07-22T11:59:03.401Z,99145.39
2018-07-22T12:01:32.478Z,99146.48
2018-07-22T12:04:01.442Z,99132.50
2018-07-22T12:06:30.424Z,99134.63
2018-07-22T12:08:59.467Z,99135.60
2018-07-22T12:11:28.440Z,99136.64
2018-07-22T12:13:57.506Z,99146.73
2018-07-22T12:16:26.562Z,99140.22
2018-07-22T12:18:55.584Z,99139.00
2018-07-22T12:21:24.652Z,99123.55
2018-07-22T12:23:53.732Z,99122.16
2018-07-22T12:26:22.843Z,99122.84
2018-07-22T12:28:51.886Z,99113.66
2018-07-22T12:31:20.916Z,99116.65
2018-07-22T12:33:50.048Z,99110.55
2018-07-22T12:36:19.076Z,99114.45
2018-07-22T12:38:48.076Z,99107.13
2018-07-22T12:41:17.052Z,99104.44
2018-07-22T12:43:46.064Z,99102.69
2018-07-22T12:46:15.099Z,99106.49
2018-07-22T12:48:44.052Z,99107.66
2018-07-22T12:51:13.198Z,99107.30
2018-07-22T12:53:42.457Z,99097.23
2018-07-22T12:56:11.441Z,99097.37
2018-07-22T12:58:40.501Z,99092.89
2018-07-22T13:01:09.468Z,99090.33
2018-07-22T13:03:38.484Z,99095.53
2018-07-22T13:06:08.621Z,99091.94
2018-07-22T13:08:37.785Z,99082.75
2018-07-22T13:11:06.764Z,99090.46
2018-07-22T13:13:35.852Z,99089.34
2018-07-22T13:16:04.873Z,99081.91
2018-07-22T13:18:33.997Z,99083.03
2018-07-22T13:21:03.114Z,99075.27
2018-07-22T13:23:32.159Z,99072.69
2018-07-22T13:26:01.183Z,99068.15
2018-07-22T13:28:30.192Z,99062.16
2018-07-22T13:30:59.530Z,99057.13
2018-07-22T13:33:28.507Z,99057.98
2018-07-22T13:35:57.876Z,99056.87
2018-07-22T13:38:26.930Z,99054.87
2018-07-22T13:40:55.911Z,99053.49
2018-07-22T13:43:24.997Z,99043.78
2018-07-22T13:45:54.021Z,99046.83
2018-07-22T13:48:23.109Z,99053.72
2018-07-22T13:50:52.110Z,99048.39
2018-07-22T13:53:21.128Z,99042.79
2018-07-22T13:55:50.102Z,99047.95
2018-07-22T13:58:19.057Z,99041.27
2018-07-22T14:00:48.136Z,99037.10
2018-07-22T14:03:17.196Z,99034.74
2018-07-22T14:05:46.163Z,99027.14
2018-07-22T14:08:15.305Z,99019.38
2018-07-22T14:10:44.272Z,99021.73
2018-07-22T14:13:13.298Z,99018.18
2018-07-22T14:15:42.336Z,99015.98
2018-07-22T14:18:11.417Z,99009.07
2018-07-22T14:20:40.495Z,99005.55
2018-07-22T14:23:09.567Z,99000.69
2018-07-22T14:25:38.636Z,98994.67
2018-07-22T14:28:07.796Z,98998.69
2018-07-22T14:30:36.756Z,98992.46
2018-07-22T14:33:05.790Z,98995.08
2018-07-22T14:35:34.854Z,98993.03
2018-07-22T14:38:04.144Z,98994.48
2018-07-22T14:40:33.176Z,98984.98
2018-07-22T14:43:02.172Z,98970.95
2018-07-22T14:45:31.132Z,98962.02
2018-07-22T14:48:00.148Z,98956.93
2018-07-22T14:50:29.242Z,98955.67
2018-07-22T14:52:58.348Z,98951.14
2018-07-22T14:55:27.442Z,98957.87
2018-07-22T14:57:56.435Z,98964.60
2018-07-22T15:00:25.491Z,98966.80
2018-07-22T15:02:54.521Z,98967.02
2018-07-22T15:05:23.607Z,98969.57
2018-07-22T15:07:54.372Z,98967.16
2018-07-22T15:10:24.537Z,98959.00
2018-07-22T15:12:53.581Z,98959.27
2018-07-22T15:15:22.708Z,98947.87
2018-07-22T15:17:51.713Z,98949.75
2018-07-22T15:20:20.769Z,98937.86
2018-07-22T15:22:49.742Z,98941.10
2018-07-22T15:25:18.748Z,98950.26
2018-07-22T15:27:47.863Z,98951.02
2018-07-22T15:30:16.864Z,98937.15
2018-07-22T15:32:45.948Z,98940.83
2018-07-22T15:35:15.159Z,98957.91
2018-07-22T15:37:44.364Z,98964.77
2018-07-22T15:40:13.360Z,98962.52
2018-07-22T15:42:42.304Z,98953.50
2018-07-22T15:45:11.385Z,98942.00
2018-07-22T15:47:40.352Z,98934.91
2018-07-22T15:50:09.313Z,98932.27
2018-07-22T15:52:38.328Z,98944.59
2018-07-22T15:55:07.321Z,98960.17
2018-07-22T15:57:36.319Z,98950.59
2018-07-22T16:00:06.104Z,98945.53
2018-07-22T16:02:35.144Z,98951.57
2018-07-22T16:05:04.306Z,98950.64
2018-07-22T16:07:33.316Z,98959.27
2018-07-22T16:10:02.415Z,98987.67
2018-07-22T16:12:31.437Z,99002.88
2018-07-22T16:15:00.488Z,99022.70
2018-07-22T16:17:29.543Z,99049.89
2018-07-22T16:19:58.623Z,99069.27
2018-07-22T16:22:27.591Z,99087.31
2018-07-22T16:24:57.404Z,99086.55
2018-07-22T16:27:26.379Z,99077.00
2018-07-22T16:29:55.489Z,99008.52
2018-07-22T16:32:24.626Z,98973.23
2018-07-22T16:34:53.707Z,98951.88
2018-07-22T16:37:22.845Z,98951.91
2018-07-22T16:39:51.835Z,98969.38
2018-07-22T16:42:20.893Z,98987.08
2018-07-22T16:44:49.900Z,99007.65
2018-07-22T16:47:19.001Z,99011.51
2018-07-22T16:49:48.085Z,99009.25
2018-07-22T16:52:17.139Z,98992.62
2018-07-22T16:54:46.191Z,99001.03
2018-07-22T16:57:15.180Z,99003.55
2018-07-22T16:59:44.153Z,99030.53
2018-07-22T17:02:13.216Z,99035.53
2018-07-22T17:04:42.257Z,99028.70
2018-07-22T17:07:11.307Z,99032.55
2018-07-22T17:09:40.299Z,99029.03
2018-07-22T17:12:09.365Z,99032.09
2018-07-22T17:14:38.336Z,99040.13
2018-07-22T17:17:07.497Z,99039.13
2018-07-22T17:19:36.528Z,99057.77
2018-07-22T17:22:05.524Z,99057.31
2018-07-22T17:24:34.540Z,99037.81
2018-07-22T17:27:03.617Z,99038.71
2018-07-22T17:29:32.731Z,99026.97
2018-07-22T17:32:01.756Z,99030.33
2018-07-22T17:34:30.841Z,99034.95
2018-07-22T17:36:59.844Z,99042.64
2018-07-22T17:39:29.315Z,99055.61
2018-07-22T17:41:58.339Z,99057.82
2018-07-22T17:44:27.453Z,99054.03
2018-07-22T17:46:56.508Z,99042.42
2018-07-22T17:49:25.664Z,99032.42
2018-07-22T17:51:54.648Z,99030.63
2018-07-22T17:54:23.688Z,99043.59
2018-07-22T17:56:52.692Z,99061.75
2018-07-22T17:59:21.915Z,99059.59
2018-07-22T18:01:51.048Z,99051.11
2018-07-22T18:04:20.080Z,99061.25
2018-07-22T18:06:49.143Z,99072.47
2018-07-22T18:09:18.125Z,99082.08
2018-07-22T18:11:47.224Z,99078.23
2018-07-22T18:14:16.346Z,99086.19
2018-07-22T18:16:45.356Z,99086.45
2018-07-22T18:19:14.344Z,99081.53
2018-07-22T18:21:43.397Z,99073.02
2018-07-22T18:24:12.451Z,99077.12
2018-07-22T18:26:41.530Z,99082.88
2018-07-22T18:29:10.682Z,99090.55
2018-07-22T18:31:39.736Z,99100.42
2018-07-22T18:34:08.697Z,99097.95
2018-07-22T18:36:37.843Z,99098.50
2018-07-22T18:39:09.183Z,99102.61
2018-07-22T18:41:38.238Z,99135.78
2018-07-22T18:44:07.604Z,99144.83
2018-07-22T18:46:37.260Z,99140.72
2018-07-22T18:49:06.268Z,99128.66
2018-07-22T18:51:35.236Z,99151.38
2018-07-22T18:54:04.377Z,99156.88
2018-07-22T18:56:33.426Z,99153.83
2018-07-22T18:59:02.523Z,99160.97
2018-07-22T19:01:31.540Z,99153.28
2018-07-22T19:04:00.621Z,99152.46
2018-07-22T19:06:29.612Z,99160.65
2018-07-22T19:08:58.663Z,99163.67
2018-07-22T19:11:27.711Z,99168.03
2018-07-22T19:13:56.744Z,99170.20
2018-07-22T19:16:25.785Z,99160.31
2018-07-22T19:18:54.867Z,99163.05
2018-07-22T19:21:23.966Z,99150.45
2018-07-22T19:23:52.937Z,99149.11
2018-07-22T19:26:21.954Z,99152.12
2018-07-22T19:28:50.993Z,99137.91
2018-07-22T19:31:20.106Z,99134.34
2018-07-22T19:33:49.145Z,99130.75
2018-07-22T19:36:18.115Z,99128.86
2018-07-22T19:38:47.192Z,99121.76
2018-07-22T19:41:16.216Z,99112.17
2018-07-22T19:43:45.212Z,99107.78
2018-07-22T19:46:14.281Z,99102.31
2018-07-22T19:48:43.256Z,99096.03
2018-07-22T19:51:12.422Z,99091.09
2018-07-22T19:53:41.564Z,99085.34
2018-07-22T19:56:10.748Z,99098.20
2018-07-22T19:58:39.789Z,99099.33
2018-07-22T20:01:08.736Z,99096.30
2018-07-22T20:03:37.729Z,99089.73
2018-07-22T20:06:06.751Z,99071.37
2018-07-22T20:08:35.747Z,99074.40
2018-07-22T20:11:04.760Z,99069.74
2018-07-22T20:13:33.856Z,99063.98
2018-07-22T20:16:02.901Z,99057.95
2018-07-22T20:18:31.960Z,99059.06
2018-07-22T20:21:00.941Z,99058.80
2018-07-22T20:23:30.344Z,99063.45
2018-07-22T20:25:59.320Z,99056.33
2018-07-22T20:28:28.336Z,99057.38
2018-07-22T20:30:57.380Z,99058.72
2018-07-22T20:33:26.478Z,99052.69
2018-07-22T20:35:55.644Z,99047.75
2018-07-22T20:38:24.741Z,99044.73
2018-07-22T20:40:53.713Z,99039.28
2018-07-22T20:43:22.798Z,99031.34
2018-07-22T20:45:51.759Z,99027.23
2018-07-22T20:48:20.776Z,99019.56
2018-07-22T20:50:49.780Z,99035.16
2018-07-22T20:53:18.743Z,99042.02
2018-07-22T20:55:47.711Z,99044.48
2018-07-22T20:58:16.684Z,99048.31
2018-07-22T21:00:45.831Z,99054.34
2018-07-22T21:03:14.847Z,99043.11
2018-07-22T21:05:43.989Z,99048.87
2018-07-22T21:08:13.029Z,99060.09
2018-07-22T21:10:42.036Z,99064.74
2018-07-22T21:13:22.160Z,99060.06
2018-07-22T21:15:51.455Z,99062.25
2018-07-22T21:18:20.424Z,99057.86
2018-07-22T21:20:49.428Z,99054.88
2018-07-22T21:23:18.573Z,99053.48
2018-07-22T21:25:47.583Z,99047.73
2018-07-22T21:28:16.520Z,99040.08
2018-07-22T21:30:45.483Z,99050.47
2018-07-22T21:33:14.427Z,99044.18
2018-07-22T21:35:43.460Z,99046.91
2018-07-22T21:38:12.528Z,99037.89
2018-07-22T21:40:41.560Z,99036.52
2018-07-22T21:43:10.569Z,99023.67
2018-07-22T21:45:39.537Z,99014.91
2018-07-22T21:48:08.532Z,99022.84
2018-07-22T21:50:37.483Z,99030.75
2018-07-22T21:53:06.438Z,99040.33
2018-07-22T21:55:35.440Z,99043.08
2018-07-22T21:58:04.401Z,99040.06
2018-07-22T22:00:38.430Z,99037.59
2018-07-22T22:03:07.383Z,99048.83
2018-07-22T22:05:36.452Z,99050.74
2018-07-22T22:08:05.547Z,99057.86
2018-07-22T22:10:34.573Z,99054.03
2018-07-22T22:13:03.523Z,99066.91
2018-07-22T22:15:33.029Z,99071.57
2018-07-22T22:18:04.190Z,99075.39
2018-07-22T22:20:33.428Z,99089.39
2018-07-22T22:23:02.495Z,99109.38
2018-07-22T22:25:31.439Z,99173.50
2018-07-22T22:28:00.643Z,99196.81
2018-07-22T22:30:29.668Z,99191.86
2018-07-22T22:32:58.728Z,99182.56
2018-07-22T22:35:27.700Z,99181.45
2018-07-22T22:37:56.697Z,99186.12
2018-07-22T22:40:25.797Z,99194.07
2018-07-22T22:42:54.776Z,99196.55
2018-07-22T22:45:23.728Z,99184.23
2018-07-22T22:47:52.756Z,99180.41
2018-07-22T22:50:21.700Z,99186.44
2018-07-22T22:52:50.669Z,99187.26
2018-07-22T22:55:19.615Z,99182.91
2018-07-22T22:57:59.464Z,99181.53
2018-07-22T23:00:28.465Z,99182.08
2018-07-22T23:02:57.415Z,99188.91
2018-07-22T23:05:26.367Z,99201.24
2018-07-22T23:07:55.388Z,99220.16
2018-07-22T23:10:24.428Z,99219.03
2018-07-22T23:12:53.433Z,99222.28
2018-07-22T23:15:22.544Z,99228.50
2018-07-22T23:17:51.539Z,99222.11
2018-07-22T23:20:20.582Z,99217.38
2018-07-22T23:22:49.595Z,99226.56
2018-07-22T23:25:18.549Z,99233.05
2018-07-22T23:27:47.744Z,99231.56
2018-07-22T23:30:16.780Z,99237.20
2018-07-22T23:32:45.879Z,99232.45
2018-07-22T23:35:14.841Z,99230.69
2018-07-22T23:37:43.884Z,99225.70
2018-07-22T23:40:12.925Z,99231.86
2018-07-22T23:42:41.998Z,99234.45
2018-07-22T23:45:10.994Z,99234.95
2018-07-22T23:47:40.029Z,99227.20
2018-07-22T23:50:09.015Z,99238.94
2018-07-22T23:52:37.980Z,99238.94
2018-07-22T23:55:07.020Z,99247.14
2018-07-22T23:57:36.089Z,99243.86
